Time;durP1;ratioP1;P1;durP2;ratioP2;P2;SDS_P1;SDS_P2;PMS_P1;PMS_P2;Temp;Humidity;BMP_temperature;BMP_pressure;BME280_temperature;BME280_humidity;BME280_pressure;Samples;Min_cycle;Max_cycle;Signal;HPM_P1;HPM_P2
2023/08/24 00:00:49;;;;;;;7.63;3.20;;;15.90;99.90;;;;;;5109494;28;20039;-87
2023/08/24 00:03:15;;;;;;;7.72;3.13;;;15.90;99.90;;;;;;5092831;28;20461;-87
2023/08/24 00:05:42;;;;;;;10.23;3.75;;;15.90;99.90;;;;;;5075353;28;20496;-86
2023/08/24 00:08:08;;;;;;;8.70;3.72;;;15.90;99.90;;;;;;5092181;28;20096;-87
2023/08/24 00:10:35;;;;;;;10.25;4.05;;;15.90;99.90;;;;;;5092413;28;20032;-87
2023/08/24 00:13:02;;;;;;;9.43;3.85;;;15.90;99.90;;;;;;5069333;28;20043;-86
2023/08/24 00:15:28;;;;;;;8.98;3.70;;;15.90;99.90;;;;;;5068098;28;20040;-87
2023/08/24 00:17:53;;;;;;;9.68;4.03;;;15.80;99.90;;;;;;5068326;28;20036;-87
2023/08/24 00:20:19;;;;;;;8.88;3.67;;;15.80;99.90;;;;;;5086976;28;20127;-87
2023/08/24 00:22:46;;;;;;;9.30;3.70;;;15.70;99.90;;;;;;5102128;28;20561;-87
2023/08/24 00:25:12;;;;;;;9.77;4.03;;;15.70;99.90;;;;;;5085690;28;20092;-87
2023/08/24 00:27:38;;;;;;;9.55;3.80;;;15.70;99.90;;;;;;5088396;28;20088;-87
2023/08/24 00:30:06;;;;;;;9.50;3.70;;;15.70;99.90;;;;;;5074127;28;20069;-86
2023/08/24 00:32:35;;;;;;;10.73;3.65;;;15.70;99.90;;;;;;5046788;28;20189;-87
2023/08/24 00:35:06;;;;;;;7.45;3.50;;;15.70;99.90;;;;;;5037789;28;20037;-87
2023/08/24 00:37:32;;;;;;;9.95;3.95;;;15.70;99.90;;;;;;5047834;28;20051;-87
2023/08/24 00:40:09;;;;;;;9.15;3.83;;;15.70;99.90;;;;;;5064334;28;20048;-87
2023/08/24 00:42:39;;;;;;;10.15;3.90;;;15.70;99.90;;;;;;5028213;28;20041;-87
2023/08/24 00:45:06;;;;;;;9.13;4.20;;;15.70;99.90;;;;;;5056727;28;20060;-87
2023/08/24 00:47:32;;;;;;;9.63;4.07;;;15.70;99.90;;;;;;5064465;28;20350;-87
2023/08/24 00:50:00;;;;;;;9.40;4.38;;;15.70;99.90;;;;;;5061257;28;20137;-87
2023/08/24 00:52:28;;;;;;;8.70;4.50;;;15.70;99.90;;;;;;5058381;28;20405;-87
2023/08/24 00:54:55;;;;;;;9.82;4.55;;;15.70;99.90;;;;;;5067474;28;20040;-86
2023/08/24 00:57:21;;;;;;;11.25;4.47;;;15.70;99.90;;;;;;5035701;28;20036;-86
2023/08/24 00:59:48;;;;;;;9.52;4.78;;;15.70;99.90;;;;;;5033531;28;21236;-87
2023/08/24 01:02:14;;;;;;;9.68;4.60;;;15.70;99.90;;;;;;5070973;28;20040;-86
2023/08/24 01:04:42;;;;;;;10.40;4.43;;;15.80;99.90;;;;;;5035880;28;20406;-87
2023/08/24 01:07:09;;;;;;;9.32;3.95;;;15.80;99.90;;;;;;5033906;28;20040;-87
2023/08/24 01:09:35;;;;;;;9.30;4.40;;;15.80;99.90;;;;;;5049044;28;20059;-87
2023/08/24 01:12:06;;;;;;;8.55;4.32;;;15.80;99.90;;;;;;5054163;28;20209;-86
2023/08/24 01:14:50;;;;;;;9.68;4.13;;;15.90;99.90;;;;;;5053744;28;20036;-87
2023/08/24 01:17:22;;;;;;;12.77;4.85;;;15.80;99.90;;;;;;5070324;28;20127;-87
2023/08/24 01:19:48;;;;;;;10.10;4.65;;;15.90;99.90;;;;;;5066591;28;20378;-86
2023/08/24 01:22:34;;;;;;;9.25;4.15;;;15.90;99.90;;;;;;5034098;28;20433;-87
2023/08/24 01:25:09;;;;;;;9.70;4.03;;;15.80;99.90;;;;;;5049988;28;20041;-87
2023/08/24 01:27:36;;;;;;;10.20;4.80;;;15.80;99.90;;;;;;5064022;28;20051;-86
2023/08/24 01:30:08;;;;;;;11.68;4.30;;;15.80;99.90;;;;;;5045615;28;20287;-87
2023/08/24 01:32:35;;;;;;;9.52;4.10;;;15.80;99.90;;;;;;5027552;28;20500;-86
2023/08/24 01:35:04;;;;;;;9.55;3.90;;;15.80;99.90;;;;;;5053829;28;20093;-86
2023/08/24 01:37:30;;;;;;;10.32;4.00;;;15.80;99.90;;;;;;5044253;28;20052;-87
2023/08/24 01:40:12;;;;;;;10.77;4.80;;;15.80;99.90;;;;;;5035968;28;20060;-86
2023/08/24 01:43:03;;;;;;;8.80;4.15;;;15.80;99.90;;;;;;5059326;28;20036;-86
2023/08/24 01:45:31;;;;;;;9.75;4.20;;;15.80;99.90;;;;;;5069209;28;20045;-86
2023/08/24 01:48:01;;;;;;;9.20;3.97;;;15.70;99.90;;;;;;5069632;28;20500;-87
2023/08/24 01:50:27;;;;;;;9.40;4.18;;;15.70;99.90;;;;;;5070106;28;20043;-86
2023/08/24 01:52:53;;;;;;;9.38;4.10;;;15.70;99.90;;;;;;5066174;28;20037;-86
2023/08/24 01:55:19;;;;;;;9.60;4.32;;;15.60;99.90;;;;;;5023779;28;20040;-87
2023/08/24 01:57:45;;;;;;;9.05;4.00;;;15.60;99.90;;;;;;5049509;28;20247;-87
2023/08/24 02:00:11;;;;;;;7.97;3.50;;;15.60;99.90;;;;;;5033413;28;20041;-86
2023/08/24 02:02:36;;;;;;;7.13;3.00;;;15.50;99.90;;;;;;5048355;28;20032;-87
2023/08/24 02:05:03;;;;;;;7.55;3.25;;;15.50;99.90;;;;;;5067738;28;20477;-86
2023/08/24 02:07:29;;;;;;;7.30;3.22;;;15.50;99.90;;;;;;5032794;28;20049;-86
2023/08/24 02:09:55;;;;;;;7.57;3.20;;;15.50;99.90;;;;;;5051696;28;20059;-86
2023/08/24 02:12:21;;;;;;;7.80;3.33;;;15.50;99.90;;;;;;5050201;28;20229;-86
2023/08/24 02:14:46;;;;;;;8.48;3.45;;;15.50;99.90;;;;;;5052589;28;20126;-87
2023/08/24 02:17:12;;;;;;;8.07;3.33;;;15.50;99.90;;;;;;5052772;28;20040;-86
2023/08/24 02:19:38;;;;;;;6.97;3.13;;;15.50;99.90;;;;;;5032716;28;20354;-86
2023/08/24 02:22:04;;;;;;;7.40;3.17;;;15.40;99.90;;;;;;5024743;28;20052;-87
2023/08/24 02:24:30;;;;;;;9.30;3.83;;;15.40;99.90;;;;;;5036061;28;20044;-87
2023/08/24 02:26:55;;;;;;;8.68;3.25;;;15.40;99.90;;;;;;5032485;28;20147;-87
2023/08/24 02:29:21;;;;;;;7.60;3.05;;;15.50;99.90;;;;;;5030658;28;20514;-87
2023/08/24 02:31:49;;;;;;;9.23;3.05;;;15.50;99.90;;;;;;5032282;28;20540;-87
2023/08/24 02:34:15;;;;;;;7.35;3.15;;;15.50;99.90;;;;;;5047102;28;20044;-87
2023/08/24 02:36:41;;;;;;;7.07;2.97;;;15.50;99.90;;;;;;5042701;28;20045;-87
2023/08/24 02:39:07;;;;;;;8.18;3.08;;;15.50;99.90;;;;;;5052590;28;20075;-87
2023/08/24 02:41:34;;;;;;;6.80;2.55;;;15.50;99.90;;;;;;5032633;28;20115;-87
2023/08/24 02:44:00;;;;;;;8.05;2.95;;;15.50;99.90;;;;;;5030835;28;20074;-87
2023/08/24 02:46:25;;;;;;;7.60;2.70;;;15.40;99.90;;;;;;5032567;28;20429;-87
2023/08/24 02:48:51;;;;;;;8.25;3.10;;;15.40;99.90;;;;;;5045794;28;20510;-87
2023/08/24 02:51:17;;;;;;;8.40;3.63;;;15.40;99.90;;;;;;5032172;28;20512;-87
2023/08/24 02:53:43;;;;;;;7.57;3.28;;;15.40;99.90;;;;;;5046614;28;20198;-87
2023/08/24 02:56:08;;;;;;;8.43;3.33;;;15.40;99.90;;;;;;5048656;28;20041;-87
2023/08/24 02:58:34;;;;;;;8.68;3.78;;;15.40;99.90;;;;;;5042703;28;20048;-88
2023/08/24 03:01:07;;;;;;;8.30;3.70;;;15.40;99.90;;;;;;5031687;28;20097;-87
2023/08/24 03:03:34;;;;;;;8.48;4.10;;;15.50;99.90;;;;;;5041242;28;20045;-87
2023/08/24 03:06:03;;;;;;;11.60;4.43;;;14.60;99.90;;;;;;5051557;28;20049;-87
2023/08/24 03:08:33;;;;;;;8.57;3.95;;;15.60;99.90;;;;;;5068443;28;20197;-87
2023/08/24 03:11:00;;;;;;;9.27;4.40;;;15.60;99.90;;;;;;5038234;28;20059;-87
2023/08/24 03:13:26;;;;;;;9.77;4.70;;;15.50;99.90;;;;;;5032095;28;20037;-87
2023/08/24 03:15:52;;;;;;;10.02;4.45;;;15.60;99.90;;;;;;5047928;28;20045;-87
2023/08/24 03:18:18;;;;;;;9.10;3.90;;;15.60;99.90;;;;;;5024214;28;20496;-87
2023/08/24 03:20:46;;;;;;;11.20;4.32;;;15.60;99.90;;;;;;5046857;28;20040;-87
2023/08/24 03:23:12;;;;;;;9.40;4.15;;;15.60;99.90;;;;;;5007576;28;20069;-87
2023/08/24 03:25:40;;;;;;;9.55;4.22;;;15.60;99.90;;;;;;5046395;28;20033;-87
2023/08/24 03:28:07;;;;;;;9.45;4.07;;;15.60;99.90;;;;;;5042924;28;20199;-87
2023/08/24 03:30:35;;;;;;;11.68;4.13;;;15.60;99.90;;;;;;5032218;28;20041;-87
2023/08/24 03:33:01;;;;;;;9.75;4.20;;;15.60;99.90;;;;;;5055921;28;20129;-87
2023/08/24 03:35:28;;;;;;;8.38;3.58;;;15.60;99.90;;;;;;5031851;28;20037;-87
2023/08/24 03:37:54;;;;;;;9.32;4.35;;;15.60;99.90;;;;;;5022431;28;20119;-87
2023/08/24 03:40:20;;;;;;;11.02;3.80;;;15.60;99.90;;;;;;5048570;28;20132;-87
2023/08/24 03:42:46;;;;;;;9.38;4.18;;;15.60;99.90;;;;;;5031351;28;20494;-87
2023/08/24 03:45:11;;;;;;;10.07;4.55;;;15.70;99.90;;;;;;5046205;28;20063;-88
2023/08/24 03:47:37;;;;;;;11.30;4.57;;;15.70;99.90;;;;;;5034804;28;20040;-87
2023/08/24 03:50:03;;;;;;;10.43;4.20;;;15.70;99.90;;;;;;5017268;28;20264;-87
2023/08/24 03:52:28;;;;;;;9.52;4.10;;;15.70;99.90;;;;;;5031142;28;20491;-87
2023/08/24 03:54:54;;;;;;;10.63;4.82;;;15.70;99.90;;;;;;5042989;28;20049;-87
2023/08/24 03:57:20;;;;;;;10.05;3.90;;;15.80;99.90;;;;;;5047844;28;20041;-87
2023/08/24 03:59:46;;;;;;;9.18;4.03;;;15.80;99.90;;;;;;5041667;28;20055;-87
2023/08/24 04:02:11;;;;;;;8.90;4.30;;;15.80;99.90;;;;;;5031326;28;20043;-87
2023/08/24 04:04:37;;;;;;;10.07;4.43;;;15.80;99.90;;;;;;5024296;28;20037;-87
2023/08/24 04:07:03;;;;;;;13.00;5.05;;;15.80;99.90;;;;;;5066424;28;20545;-86
2023/08/24 04:09:28;;;;;;;9.55;4.50;;;15.80;99.90;;;;;;5051547;28;20262;-87
2023/08/24 04:11:54;;;;;;;9.38;4.60;;;15.80;99.90;;;;;;5051143;28;20532;-87
2023/08/24 04:14:20;;;;;;;10.88;4.50;;;15.80;99.90;;;;;;5031556;28;20510;-87
2023/08/24 04:16:47;;;;;;;9.82;4.35;;;15.80;99.90;;;;;;5028348;28;20477;-87
2023/08/24 04:19:13;;;;;;;9.77;4.28;;;15.80;99.90;;;;;;5021602;28;20051;-87
2023/08/24 04:21:38;;;;;;;10.10;4.70;;;15.80;99.90;;;;;;5030446;28;20044;-87
2023/08/24 04:24:04;;;;;;;9.88;4.30;;;15.80;99.90;;;;;;5050705;28;20353;-87
2023/08/24 04:26:30;;;;;;;9.57;4.15;;;15.80;99.90;;;;;;5041124;28;20048;-87
2023/08/24 04:28:56;;;;;;;9.02;4.07;;;15.80;99.90;;;;;;5031328;28;20045;-87
2023/08/24 04:31:22;;;;;;;9.75;4.32;;;15.80;99.90;;;;;;5045107;28;20322;-87
2023/08/24 04:33:47;;;;;;;10.55;4.05;;;15.80;99.90;;;;;;5055287;28;20047;-87
2023/08/24 04:36:13;;;;;;;11.15;4.25;;;15.80;99.90;;;;;;5048429;28;20055;-87
2023/08/24 04:38:39;;;;;;;10.73;4.93;;;15.80;99.90;;;;;;5035142;28;20040;-86
2023/08/24 04:41:08;;;;;;;10.02;4.65;;;15.80;99.90;;;;;;5044236;28;20047;-87
2023/08/24 04:43:36;;;;;;;10.30;4.50;;;15.80;99.90;;;;;;5054258;28;20047;-87
2023/08/24 04:46:02;;;;;;;13.18;4.72;;;15.80;99.90;;;;;;5070672;28;20057;-87
2023/08/24 04:48:32;;;;;;;11.95;4.60;;;15.70;99.90;;;;;;5051339;28;20397;-87
2023/08/24 04:50:58;;;;;;;9.15;4.35;;;15.70;99.90;;;;;;5027908;28;20041;-87
2023/08/24 04:53:25;;;;;;;9.07;4.15;;;15.70;99.90;;;;;;5049853;28;20047;-87
2023/08/24 04:55:52;;;;;;;11.77;5.43;;;15.70;99.90;;;;;;5046396;28;20044;-87
2023/08/24 04:58:18;;;;;;;9.77;4.88;;;15.60;99.90;;;;;;5034103;28;20045;-87
2023/08/24 05:00:44;;;;;;;11.48;4.80;;;15.60;99.90;;;;;;5042319;28;20135;-87
2023/08/24 05:03:10;;;;;;;9.90;4.63;;;15.60;99.90;;;;;;5051644;28;20055;-87
2023/08/24 05:05:36;;;;;;;12.25;4.50;;;16.00;99.90;;;;;;5034443;28;20045;-87
2023/08/24 05:08:05;;;;;;;9.48;4.57;;;15.60;99.90;;;;;;5050691;28;20033;-87
2023/08/24 05:10:32;;;;;;;9.35;4.68;;;15.60;99.90;;;;;;5071067;28;20036;-86
2023/08/24 05:12:58;;;;;;;8.70;4.15;;;15.60;99.90;;;;;;5054124;28;20108;-87
2023/08/24 05:15:24;;;;;;;11.32;4.70;;;15.50;99.90;;;;;;5054271;28;20120;-87
2023/08/24 05:17:52;;;;;;;9.65;4.65;;;15.60;99.90;;;;;;5036079;28;20520;-87
2023/08/24 05:20:18;;;;;;;9.40;4.57;;;15.60;99.90;;;;;;5050572;28;20045;-87
2023/08/24 05:22:44;;;;;;;9.18;4.22;;;15.60;99.90;;;;;;5030843;28;20120;-87
2023/08/24 05:25:09;;;;;;;10.88;4.65;;;15.60;99.90;;;;;;5049985;28;20124;-87
2023/08/24 05:27:35;;;;;;;10.65;4.47;;;15.70;99.90;;;;;;5045596;28;20043;-87
2023/08/24 05:30:01;;;;;;;9.75;4.65;;;15.80;99.90;;;;;;5033931;28;20067;-87
2023/08/24 05:32:27;;;;;;;10.63;4.72;;;15.80;99.90;;;;;;5057340;28;20072;-87
2023/08/24 05:34:52;;;;;;;10.93;4.70;;;15.80;99.90;;;;;;5034232;28;20115;-87
2023/08/24 05:37:18;;;;;;;10.00;5.00;;;15.80;99.90;;;;;;5026250;28;20150;-87
2023/08/24 05:39:44;;;;;;;9.88;4.65;;;15.80;99.90;;;;;;5033121;28;20055;-87
2023/08/24 05:42:09;;;;;;;10.48;5.15;;;15.80;99.90;;;;;;5042219;28;20044;-87
2023/08/24 05:44:35;;;;;;;9.60;4.53;;;15.80;99.90;;;;;;5031697;28;20049;-87
2023/08/24 05:47:01;;;;;;;10.75;4.57;;;15.90;99.90;;;;;;5024307;28;20041;-87
2023/08/24 05:49:27;;;;;;;9.75;4.55;;;15.90;99.90;;;;;;5031062;28;20102;-87
2023/08/24 05:51:53;;;;;;;10.93;4.88;;;16.00;99.90;;;;;;5043584;28;20049;-87
2023/08/24 05:54:19;;;;;;;10.65;5.18;;;16.00;99.90;;;;;;5053217;28;20052;-87
2023/08/24 05:56:45;;;;;;;10.30;4.88;;;16.00;99.90;;;;;;5033277;28;20037;-87
2023/08/24 05:59:11;;;;;;;10.40;4.97;;;16.00;99.90;;;;;;5065956;28;20421;-87
2023/08/24 06:01:38;;;;;;;11.90;5.00;;;16.10;99.90;;;;;;5053594;28;20040;-87
2023/08/24 06:04:10;;;;;;;10.43;4.70;;;16.20;99.90;;;;;;5052969;28;20045;-87
2023/08/24 06:06:36;;;;;;;9.82;4.18;;;16.30;99.90;;;;;;5069942;28;20033;-87
2023/08/24 06:09:05;;;;;;;13.02;5.32;;;17.40;99.90;;;;;;5053144;28;20481;-87
2023/08/24 06:11:32;;;;;;;10.63;4.85;;;16.50;99.90;;;;;;5069783;28;20039;-87
2023/08/24 06:13:58;;;;;;;10.93;5.53;;;16.60;99.90;;;;;;5053127;28;20266;-87
2023/08/24 06:16:24;;;;;;;10.30;4.60;;;16.70;99.90;;;;;;5069733;28;20345;-87
2023/08/24 06:18:49;;;;;;;10.57;4.78;;;16.90;99.90;;;;;;5039384;28;20441;-86
2023/08/24 06:21:16;;;;;;;13.00;4.88;;;17.00;99.90;;;;;;5032830;28;20029;-87
2023/08/24 06:23:42;;;;;;;11.52;4.85;;;17.10;99.90;;;;;;5042627;28;20051;-86
2023/08/24 06:26:07;;;;;;;11.55;4.63;;;17.20;99.90;;;;;;5046036;28;20370;-87
2023/08/24 06:28:33;;;;;;;10.65;4.03;;;17.30;99.90;;;;;;5041898;28;20268;-87
2023/08/24 06:31:00;;;;;;;13.00;4.38;;;17.50;99.90;;;;;;5052599;28;20474;-87
2023/08/24 06:33:36;;;;;;;9.98;3.60;;;17.50;99.90;;;;;;5068958;28;20062;-87
2023/08/24 06:36:05;;;;;;;9.18;3.42;;;17.70;99.90;;;;;;5052403;28;20672;-87
2023/08/24 06:38:31;;;;;;;9.48;3.67;;;17.80;99.90;;;;;;5052729;28;20470;-87
2023/08/24 06:40:58;;;;;;;9.77;3.88;;;17.90;99.90;;;;;;5052367;28;20047;-87
2023/08/24 06:43:23;;;;;;;10.25;3.97;;;18.00;99.90;;;;;;5032742;28;20040;-87
2023/08/24 06:45:49;;;;;;;8.65;3.72;;;18.00;99.90;;;;;;5033490;28;20406;-87
2023/08/24 06:48:15;;;;;;;10.30;3.60;;;18.10;99.90;;;;;;5032137;28;20507;-86
2023/08/24 06:50:41;;;;;;;10.20;3.63;;;18.20;99.90;;;;;;5032916;28;20047;-88
2023/08/24 06:53:06;;;;;;;8.45;3.35;;;18.30;99.90;;;;;;5032151;28;20490;-88
2023/08/24 06:55:32;;;;;;;8.70;3.10;;;18.40;99.90;;;;;;5030869;28;20060;-87
2023/08/24 06:57:58;;;;;;;8.40;3.08;;;18.50;99.90;;;;;;5032016;28;20498;-87
2023/08/24 07:00:25;;;;;;;9.52;3.03;;;18.50;99.90;;;;;;5029474;28;20045;-87
2023/08/24 07:02:51;;;;;;;9.70;3.42;;;18.50;99.90;;;;;;5031924;28;20037;-87
2023/08/24 07:05:20;;;;;;;7.35;2.83;;;18.60;99.90;;;;;;5046693;28;20040;-87
2023/08/24 07:07:47;;;;;;;11.18;3.13;;;18.70;99.90;;;;;;5032452;28;20037;-87
2023/08/24 07:10:13;;;;;;;8.18;2.60;;;18.80;99.90;;;;;;5054070;28;20040;-87
2023/08/24 07:12:44;;;;;;;7.93;2.85;;;18.90;99.90;;;;;;5031846;28;20520;-86
2023/08/24 07:15:11;;;;;;;8.65;2.70;;;19.00;99.90;;;;;;5062344;28;20047;-87
2023/08/24 07:17:37;;;;;;;8.40;2.83;;;19.20;99.90;;;;;;5032050;28;20056;-88
2023/08/24 07:20:08;;;;;;;9.82;3.33;;;19.30;99.90;;;;;;5045083;28;20485;-88
2023/08/24 07:22:34;;;;;;;8.63;2.97;;;19.30;99.90;;;;;;5018870;28;20044;-87
2023/08/24 07:25:01;;;;;;;8.50;2.97;;;19.40;99.90;;;;;;5061803;28;20040;-87
2023/08/24 07:27:28;;;;;;;8.38;3.20;;;19.50;99.90;;;;;;5051270;28;20131;-89
2023/08/24 07:29:54;;;;;;;8.50;3.63;;;19.60;99.90;;;;;;5015790;28;20037;-87
2023/08/24 07:32:19;;;;;;;9.35;3.72;;;19.70;99.90;;;;;;5030838;28;20402;-87
2023/08/24 07:34:45;;;;;;;12.90;3.85;;;19.80;99.90;;;;;;5024060;28;20421;-87
2023/08/24 07:37:11;;;;;;;10.20;4.20;;;20.00;99.90;;;;;;5029868;28;20045;-88
2023/08/24 07:39:38;;;;;;;9.52;4.32;;;20.00;99.90;;;;;;5043017;28;20046;-87
2023/08/24 07:42:04;;;;;;;9.57;4.15;;;20.00;99.90;;;;;;5051128;28;20128;-88
2023/08/24 07:44:30;;;;;;;9.73;4.38;;;20.10;99.90;;;;;;5031153;28;20128;-87
2023/08/24 07:46:56;;;;;;;9.32;4.25;;;20.20;99.90;;;;;;5044752;28;20098;-90
2023/08/24 07:49:22;;;;;;;10.65;4.05;;;20.30;99.90;;;;;;5021853;28;20037;-88
2023/08/24 07:51:47;;;;;;;10.50;4.63;;;20.50;99.90;;;;;;5030512;28;20055;-88
2023/08/24 07:54:13;;;;;;;11.77;5.20;;;20.60;99.90;;;;;;5031184;28;20048;-88
2023/08/24 07:56:39;;;;;;;12.63;4.25;;;20.70;99.90;;;;;;5063204;28;20166;-88
2023/08/24 07:59:04;;;;;;;11.25;4.57;;;20.70;99.90;;;;;;5031366;28;20041;-88
2023/08/24 08:01:30;;;;;;;13.68;4.10;;;20.80;99.90;;;;;;5046215;28;20041;-88
2023/08/24 08:03:56;;;;;;;11.43;4.47;;;20.90;99.90;;;;;;5048020;28;20498;-88
2023/08/24 08:06:24;;;;;;;10.20;4.13;;;21.00;99.90;;;;;;5043375;28;20045;-89
2023/08/24 08:08:51;;;;;;;9.73;4.28;;;21.10;99.90;;;;;;5035765;28;20041;-88
2023/08/24 08:11:17;;;;;;;10.05;3.63;;;21.20;99.90;;;;;;5029021;28;20478;-88
2023/08/24 08:13:43;;;;;;;8.68;3.38;;;21.30;99.90;;;;;;5038151;28;20041;-87
2023/08/24 08:16:09;;;;;;;8.07;3.20;;;21.40;99.90;;;;;;5048235;28;20063;-89
2023/08/24 08:18:38;;;;;;;8.40;3.25;;;21.50;99.90;;;;;;5038402;28;20505;-88
2023/08/24 08:21:14;;;;;;;10.48;3.60;;;21.60;99.90;;;;;;5042570;28;20358;-89
2023/08/24 08:23:40;;;;;;;9.63;3.25;;;21.70;99.90;;;;;;5041763;28;20479;-89
2023/08/24 08:26:10;;;;;;;8.82;3.03;;;21.80;99.90;;;;;;5037772;28;20044;-88
2023/08/24 08:28:35;;;;;;;7.72;2.78;;;21.90;99.90;;;;;;5071927;28;20047;-88
2023/08/24 08:31:02;;;;;;;9.18;3.45;;;22.00;99.90;;;;;;5035162;28;20033;-89
2023/08/24 08:33:28;;;;;;;8.80;2.97;;;22.10;99.90;;;;;;5050748;28;20563;-89
2023/08/24 08:35:54;;;;;;;8.20;3.08;;;22.10;99.90;;;;;;5047379;28;20505;-88
2023/08/24 08:38:25;;;;;;;7.80;2.60;;;22.20;99.90;;;;;;5036634;28;20040;-88
2023/08/24 08:40:53;;;;;;;9.27;3.28;;;22.30;99.90;;;;;;5067493;28;20437;-88
2023/08/24 08:43:21;;;;;;;11.30;3.53;;;22.40;99.90;;;;;;5070560;28;20425;-88
2023/08/24 08:45:52;;;;;;;8.35;2.67;;;22.50;99.90;;;;;;5070740;28;20070;-89
2023/08/24 08:48:20;;;;;;;9.98;3.00;;;22.60;99.90;;;;;;5035268;28;20044;-88
2023/08/24 08:50:55;;;;;;;8.52;2.80;;;22.70;99.90;;;;;;5064111;28;20143;-88
2023/08/24 08:53:22;;;;;;;8.00;2.80;;;22.70;99.90;;;;;;5071030;28;20033;-88
2023/08/24 08:55:53;;;;;;;8.02;2.75;;;22.80;99.90;;;;;;5067887;28;20111;-89
2023/08/24 08:58:20;;;;;;;8.80;3.28;;;22.90;99.90;;;;;;5054231;28;20063;-88
2023/08/24 09:00:47;;;;;;;9.15;3.55;;;23.00;99.90;;;;;;5034747;28;20037;-88
2023/08/24 09:03:17;;;;;;;8.40;2.70;;;23.00;99.90;;;;;;5052940;28;20051;-88
2023/08/24 09:05:43;;;;;;;10.23;3.60;;;22.90;99.90;;;;;;5054101;28;20098;-89
2023/08/24 09:08:09;;;;;;;7.28;2.75;;;22.90;99.90;;;;;;5053843;28;20045;-88
2023/08/24 09:10:35;;;;;;;9.43;3.65;;;22.80;99.90;;;;;;5034799;28;20037;-88
2023/08/24 09:13:01;;;;;;;9.93;3.53;;;22.70;99.90;;;;;;5049144;28;20128;-88
2023/08/24 09:15:27;;;;;;;8.32;3.03;;;22.60;99.90;;;;;;5025013;28;20482;-88
2023/08/24 09:17:56;;;;;;;8.45;3.15;;;22.50;99.90;;;;;;5047370;28;20052;-88
2023/08/24 09:20:21;;;;;;;10.27;3.42;;;22.40;99.90;;;;;;5060982;28;20097;-88
2023/08/24 09:22:47;;;;;;;9.13;3.10;;;22.50;99.90;;;;;;5034072;28;20048;-88
2023/08/24 09:25:13;;;;;;;8.75;2.92;;;22.50;99.90;;;;;;5023648;28;20441;-89
2023/08/24 09:27:39;;;;;;;9.88;3.10;;;22.60;99.90;;;;;;5033158;28;20044;-89
2023/08/24 09:30:05;;;;;;;10.52;3.00;;;22.70;99.90;;;;;;5033776;28;20041;-90
2023/08/24 09:32:32;;;;;;;7.90;2.97;;;22.70;99.90;;;;;;5032455;28;20402;-88
2023/08/24 09:35:10;;;;;;;9.38;3.40;;;22.70;99.90;;;;;;5070712;28;20066;-88
2023/08/24 09:37:38;;;;;;;9.50;3.38;;;22.70;99.90;;;;;;5053658;28;20047;-89
2023/08/24 09:40:08;;;;;;;10.10;3.15;;;22.70;99.90;;;;;;5033897;28;20521;-88
2023/08/24 09:42:41;;;;;;;7.13;2.97;;;22.70;99.90;;;;;;5031635;28;20044;-88
2023/08/24 09:45:12;;;;;;;8.80;3.00;;;22.70;99.90;;;;;;5070355;28;20067;-88
2023/08/24 09:47:38;;;;;;;7.82;3.10;;;22.80;99.90;;;;;;5033216;28;20302;-89
2023/08/24 09:50:08;;;;;;;8.68;2.95;;;22.80;99.90;;;;;;5023243;28;20041;-88
2023/08/24 09:52:34;;;;;;;8.18;3.05;;;22.70;99.90;;;;;;5049612;28;20535;-88
2023/08/24 09:55:07;;;;;;;8.55;2.90;;;22.70;99.90;;;;;;5054014;28;21566;-88
2023/08/24 09:57:37;;;;;;;9.30;3.10;;;22.70;99.90;;;;;;5036532;28;20090;-88
2023/08/24 10:00:10;;;;;;;8.52;3.33;;;22.70;99.90;;;;;;5069829;28;20040;-88
2023/08/24 10:02:39;;;;;;;11.23;3.38;;;22.70;99.90;;;;;;5036720;28;20127;-88
2023/08/24 10:05:05;;;;;;;8.02;3.25;;;22.70;99.90;;;;;;5053241;28;20048;-90
2023/08/24 10:07:33;;;;;;;10.50;3.08;;;22.60;99.90;;;;;;5049406;28;20506;-88
2023/08/24 10:10:04;;;;;;;8.10;3.15;;;22.60;99.90;;;;;;5024261;28;20049;-88
2023/08/24 10:12:36;;;;;;;9.85;3.72;;;22.60;99.90;;;;;;5033874;28;20036;-88
2023/08/24 10:15:12;;;;;;;10.65;3.60;;;22.60;99.90;;;;;;5069868;28;20146;-88
2023/08/24 10:17:40;;;;;;;9.25;3.08;;;22.60;99.90;;;;;;5053333;28;20124;-89
2023/08/24 10:20:09;;;;;;;9.55;3.67;;;22.50;99.90;;;;;;5052931;28;20041;-88
2023/08/24 10:22:36;;;;;;;9.00;3.00;;;22.50;99.90;;;;;;5032605;28;20048;-88
2023/08/24 10:25:06;;;;;;;8.13;3.55;;;22.50;99.90;;;;;;5024508;28;20174;-88
2023/08/24 10:27:32;;;;;;;12.13;3.88;;;22.50;99.90;;;;;;5050572;28;20509;-88
2023/08/24 10:30:01;;;;;;;9.50;3.17;;;22.50;99.90;;;;;;5032253;28;20490;-88
2023/08/24 10:32:27;;;;;;;8.48;3.40;;;22.50;99.90;;;;;;5030967;28;20032;-87
2023/08/24 10:34:53;;;;;;;8.82;3.42;;;22.50;99.90;;;;;;5049621;28;20505;-87
2023/08/24 10:37:26;;;;;;;9.60;3.13;;;22.50;99.90;;;;;;5029853;28;20055;-87
2023/08/24 10:39:51;;;;;;;8.77;3.65;;;22.40;99.90;;;;;;5061092;28;20501;-87
2023/08/24 10:42:17;;;;;;;11.80;3.60;;;22.40;99.90;;;;;;5032508;28;20040;-88
2023/08/24 10:44:47;;;;;;;10.15;3.67;;;22.40;99.90;;;;;;5043019;28;20110;-87
2023/08/24 10:47:22;;;;;;;8.52;3.28;;;22.30;99.90;;;;;;5032068;28;20226;-88
2023/08/24 10:49:54;;;;;;;8.80;3.42;;;22.30;99.90;;;;;;5024535;28;20116;-87
2023/08/24 10:52:21;;;;;;;8.50;3.40;;;22.30;99.90;;;;;;5051066;28;20044;-87
2023/08/24 10:54:51;;;;;;;10.88;3.63;;;22.20;99.90;;;;;;5052555;28;20058;-88
2023/08/24 10:57:22;;;;;;;10.80;3.33;;;22.20;99.90;;;;;;5029341;28;20041;-88
2023/08/24 11:00:11;;;;;;;11.43;3.42;;;22.20;99.90;;;;;;5044458;28;20049;-88
2023/08/24 11:02:51;;;;;;;10.20;3.60;;;22.20;99.90;;;;;;5040043;28;20141;-88
2023/08/24 11:05:53;;;;;;;10.10;3.30;;;22.20;99.90;;;;;;5068684;28;20040;-88
2023/08/24 11:08:12;;;;;;;10.15;3.97;;;22.20;99.90;;;;;;5062161;28;20045;-87
2023/08/24 11:10:41;;;;;;;8.68;3.42;;;22.10;99.90;;;;;;5031653;28;20047;-88
2023/08/24 11:13:14;;;;;;;10.43;3.60;;;22.20;99.90;;;;;;5044374;28;20515;-87
2023/08/24 11:15:44;;;;;;;9.80;4.05;;;22.20;99.90;;;;;;5068513;28;20040;-88
2023/08/24 11:18:23;;;;;;;10.15;3.72;;;22.20;99.90;;;;;;5051749;28;20052;-88
2023/08/24 11:20:56;;;;;;;10.48;3.92;;;22.20;99.90;;;;;;5051886;28;20049;-88
2023/08/24 11:23:24;;;;;;;10.07;3.70;;;22.20;99.90;;;;;;5051913;28;20509;-88
2023/08/24 11:25:57;;;;;;;9.85;3.78;;;22.30;99.90;;;;;;5068246;28;20508;-87
2023/08/24 11:28:24;;;;;;;10.30;3.75;;;22.30;99.90;;;;;;5050294;28;20040;-88
2023/08/24 11:30:50;;;;;;;9.07;4.10;;;22.30;99.90;;;;;;5068063;28;20040;-88
2023/08/24 11:33:26;;;;;;;10.63;3.90;;;22.30;99.90;;;;;;5049736;28;20045;-87
2023/08/24 11:35:53;;;;;;;10.50;4.15;;;22.40;99.90;;;;;;5051710;28;20045;-88
2023/08/24 11:38:18;;;;;;;9.63;4.18;;;22.40;99.90;;;;;;5030959;28;20068;-87
2023/08/24 11:40:44;;;;;;;9.95;4.50;;;22.50;99.90;;;;;;5031579;28;20125;-88
2023/08/24 11:43:10;;;;;;;10.20;4.28;;;22.50;99.90;;;;;;5027720;28;20044;-87
2023/08/24 11:45:37;;;;;;;9.32;3.72;;;22.60;99.90;;;;;;5031339;28;20061;-88
2023/08/24 11:48:06;;;;;;;9.57;3.92;;;22.60;99.90;;;;;;5042924;28;20041;-87
2023/08/24 11:50:36;;;;;;;9.40;3.88;;;22.70;99.90;;;;;;5051746;28;20043;-88
2023/08/24 11:53:02;;;;;;;10.10;4.38;;;22.70;99.90;;;;;;5050775;28;20079;-88
2023/08/24 11:55:28;;;;;;;8.65;3.60;;;22.80;99.90;;;;;;5031802;28;20045;-87
2023/08/24 11:57:55;;;;;;;8.77;3.78;;;22.90;99.90;;;;;;5024586;28;20056;-88
2023/08/24 12:00:21;;;;;;;9.32;3.85;;;23.20;99.90;;;;;;5031598;28;20119;-87
2023/08/24 12:02:48;;;;;;;11.27;4.03;;;23.20;99.90;;;;;;5023805;28;20113;-87
2023/08/24 12:05:24;;;;;;;10.30;4.35;;;23.30;99.90;;;;;;5062268;28;20041;-88
2023/08/24 12:07:52;;;;;;;9.35;3.95;;;23.40;99.90;;;;;;5025005;28;20033;-87
2023/08/24 12:10:18;;;;;;;9.43;3.90;;;23.50;99.90;;;;;;5031328;28;20037;-87
2023/08/24 12:12:43;;;;;;;9.80;4.05;;;23.50;99.90;;;;;;5051144;28;20036;-87
2023/08/24 12:15:16;;;;;;;9.07;4.40;;;23.60;99.90;;;;;;5015712;28;20075;-88
2023/08/24 12:17:43;;;;;;;10.98;4.07;;;23.70;99.90;;;;;;5043715;28;20120;-88
2023/08/24 12:20:20;;;;;;;10.50;4.65;;;23.60;99.90;;;;;;5050930;28;20179;-88
2023/08/24 12:22:53;;;;;;;9.82;3.95;;;23.70;99.90;;;;;;5051397;28;20040;-88
2023/08/24 12:25:23;;;;;;;10.48;4.40;;;23.60;99.90;;;;;;5053198;28;20404;-88
2023/08/24 12:28:08;;;;;;;10.60;4.93;;;23.60;99.90;;;;;;5042237;28;20065;-88
2023/08/24 12:30:50;;;;;;;12.82;4.70;;;23.60;99.90;;;;;;5051435;28;20033;-88
2023/08/24 12:33:23;;;;;;;11.00;4.38;;;23.50;99.90;;;;;;5030774;28;20135;-90
2023/08/24 12:35:50;;;;;;;9.30;4.38;;;23.50;99.90;;;;;;5023173;28;20490;-88
2023/08/24 12:38:16;;;;;;;10.40;4.65;;;23.40;99.90;;;;;;5049259;28;20049;-88
2023/08/24 12:40:42;;;;;;;9.63;4.35;;;23.40;99.90;;;;;;5031310;28;20037;-88
2023/08/24 12:43:07;;;;;;;10.35;4.63;;;23.40;99.90;;;;;;5065206;28;20049;-88
2023/08/24 12:45:33;;;;;;;12.63;4.53;;;23.40;99.90;;;;;;5024987;28;20048;-87